createdAt,value
2019-03-29T00:00:23.565Z,86.90
2019-03-29T00:02:54.642Z,99.90
2019-03-29T00:05:24.275Z,96.87
2019-03-29T00:07:53.903Z,90.95
2019-03-29T00:10:23.557Z,79.32
2019-03-29T00:12:53.263Z,80.38
2019-03-29T00:15:22.790Z,59.65
2019-03-29T00:17:52.414Z,60.35
2019-03-29T00:20:22.040Z,56.75
2019-03-29T00:22:52.797Z,68.40
2019-03-29T00:25:22.425Z,89.10
2019-03-29T00:27:52.058Z,123.28
2019-03-29T00:30:22.124Z,143.93
2019-03-29T00:32:51.919Z,128.72
2019-03-29T00:35:21.657Z,82.20
2019-03-29T00:37:53.818Z,91.17
2019-03-29T00:40:22.750Z,104.12
2019-03-29T00:42:52.276Z,100.90
2019-03-29T00:45:21.894Z,80.70
2019-03-29T00:47:51.635Z,109.87
2019-03-29T00:50:21.256Z,65.08
2019-03-29T00:52:50.888Z,64.47
2019-03-29T00:55:20.955Z,55.50
2019-03-29T00:57:50.755Z,62.15
2019-03-29T01:00:20.382Z,53.13
2019-03-29T01:02:49.911Z,46.83
2019-03-29T01:05:20.225Z,41.55
2019-03-29T01:07:50.704Z,44.83
2019-03-29T01:10:20.348Z,44.10
2019-03-29T01:12:50.054Z,43.65
2019-03-29T01:15:19.571Z,45.43
2019-03-29T01:17:49.337Z,41.55
2019-03-29T01:20:18.942Z,45.90
2019-03-29T01:22:48.585Z,41.95
2019-03-29T01:25:18.299Z,46.10
2019-03-29T01:27:47.819Z,46.37
2019-03-29T01:30:17.346Z,54.10
2019-03-29T01:32:46.980Z,53.03
2019-03-29T01:35:16.707Z,53.33
2019-03-29T01:37:47.462Z,58.28
2019-03-29T01:40:17.086Z,71.70
2019-03-29T01:42:46.717Z,68.45
2019-03-29T01:45:16.344Z,97.82
2019-03-29T01:47:45.869Z,78.10
2019-03-29T01:50:15.497Z,100.75
2019-03-29T01:52:45.862Z,103.70
2019-03-29T01:55:15.567Z,81.30
2019-03-29T01:57:45.304Z,70.25
2019-03-29T02:00:18.207Z,72.47
2019-03-29T02:02:47.836Z,68.57
2019-03-29T02:05:17.460Z,71.37
2019-03-29T02:07:47.184Z,77.87
2019-03-29T02:10:16.914Z,74.72
2019-03-29T02:12:46.643Z,106.03
2019-03-29T02:15:16.275Z,87.22
2019-03-29T02:17:45.805Z,104.87
2019-03-29T02:20:15.325Z,77.20
2019-03-29T02:22:44.958Z,72.58
2019-03-29T02:25:15.324Z,75.95
2019-03-29T02:27:45.846Z,68.87
2019-03-29T02:30:15.382Z,74.15
2019-03-29T02:32:45.002Z,74.90
2019-03-29T02:35:14.736Z,74.20
2019-03-29T02:37:44.357Z,87.12
2019-03-29T02:40:13.988Z,84.87
2019-03-29T02:42:43.622Z,69.85
2019-03-29T02:45:13.249Z,76.25
2019-03-29T02:47:42.733Z,87.17
2019-03-29T02:50:12.243Z,72.13
2019-03-29T02:52:41.927Z,64.85
2019-03-29T02:55:11.446Z,68.67
2019-03-29T02:57:41.085Z,80.60
2019-03-29T03:00:10.810Z,64.22
2019-03-29T03:02:40.391Z,62.15
2019-03-29T03:05:10.467Z,66.05
2019-03-29T03:07:41.117Z,63.02
2019-03-29T03:10:11.377Z,54.58
2019-03-29T03:12:41.093Z,61.50
2019-03-29T03:15:10.702Z,66.90
2019-03-29T03:17:41.488Z,61.50
2019-03-29T03:20:15.399Z,57.48
2019-03-29T03:22:45.540Z,52.17
2019-03-29T03:25:15.168Z,45.05
2019-03-29T03:27:44.788Z,58.78
2019-03-29T03:30:14.335Z,54.63
2019-03-29T03:32:43.885Z,60.95
2019-03-29T03:35:13.481Z,55.13
2019-03-29T03:37:43.002Z,52.45
2019-03-29T03:40:12.515Z,51.28
2019-03-29T03:42:42.059Z,55.90
2019-03-29T03:45:11.672Z,57.27
2019-03-29T03:47:41.231Z,58.50
2019-03-29T03:50:25.978Z,59.98
2019-03-29T03:52:55.493Z,61.58
2019-03-29T03:55:25.026Z,64.15
2019-03-29T03:57:57.752Z,103.67
2019-03-29T04:00:45.543Z,110.30
2019-03-29T04:03:15.067Z,114.08
2019-03-29T04:05:44.599Z,76.37
2019-03-29T04:08:14.119Z,83.78
2019-03-29T04:10:43.677Z,82.00
2019-03-29T04:13:13.377Z,83.42
2019-03-29T04:15:43.111Z,76.45
2019-03-29T04:18:15.712Z,67.30
2019-03-29T04:20:43.900Z,61.33
2019-03-29T04:23:13.432Z,69.80
2019-03-29T04:25:42.978Z,61.55
2019-03-29T04:28:12.480Z,54.63
2019-03-29T04:30:42.109Z,62.58
2019-03-29T04:33:11.661Z,52.27
2019-03-29T04:35:41.251Z,62.20
2019-03-29T04:38:10.885Z,42.77
2019-03-29T04:40:40.515Z,46.88
2019-03-29T04:43:10.138Z,52.15
2019-03-29T04:45:39.763Z,42.20
2019-03-29T04:48:09.294Z,42.67
2019-03-29T04:50:39.025Z,39.30
2019-03-29T04:53:08.651Z,35.90
2019-03-29T04:55:38.374Z,31.27
2019-03-29T04:58:07.914Z,31.40
2019-03-29T05:00:37.526Z,30.00
2019-03-29T05:03:07.158Z,24.45
2019-03-29T05:05:36.894Z,29.35
2019-03-29T05:08:06.723Z,26.95
2019-03-29T05:10:36.347Z,26.42
2019-03-29T05:13:06.999Z,30.12
2019-03-29T05:15:36.634Z,29.32
2019-03-29T05:18:06.260Z,24.23
2019-03-29T05:20:35.940Z,26.33
2019-03-29T05:23:05.497Z,25.02
2019-03-29T05:25:35.145Z,22.10
2019-03-29T05:28:04.873Z,29.37
2019-03-29T05:30:34.607Z,28.80
2019-03-29T05:33:04.229Z,28.92
2019-03-29T05:35:33.702Z,26.20
2019-03-29T05:38:03.286Z,19.60
2019-03-29T05:40:35.212Z,24.70
2019-03-29T05:43:04.172Z,24.70
2019-03-29T05:45:33.726Z,21.68
2019-03-29T05:48:03.330Z,30.00
2019-03-29T05:50:33.155Z,28.95
2019-03-29T05:53:02.680Z,27.67
2019-03-29T05:55:33.083Z,28.98
2019-03-29T05:58:03.878Z,33.95
2019-03-29T06:00:33.510Z,28.45
2019-03-29T06:03:03.431Z,26.50
2019-03-29T06:05:33.178Z,29.98
2019-03-29T06:08:02.807Z,32.03
2019-03-29T06:10:32.437Z,38.13
2019-03-29T06:13:02.263Z,33.47
2019-03-29T06:15:31.995Z,39.05
2019-03-29T06:18:01.565Z,29.18
2019-03-29T06:20:31.168Z,31.55
2019-03-29T06:23:00.733Z,29.07
2019-03-29T06:28:00.328Z,32.45
2019-03-29T06:30:30.383Z,27.03
2019-03-29T06:33:00.100Z,24.57
2019-03-29T06:35:34.551Z,26.97
2019-03-29T06:38:04.480Z,31.10
2019-03-29T06:40:35.236Z,24.07
2019-03-29T06:43:04.861Z,29.00
2019-03-29T06:45:47.341Z,25.73
2019-03-29T06:48:06.055Z,28.10
2019-03-29T06:50:35.722Z,31.37
2019-03-29T06:53:05.520Z,31.47
2019-03-29T06:55:35.248Z,22.70
2019-03-29T06:58:04.876Z,22.13
2019-03-29T07:00:34.413Z,23.13
2019-03-29T07:03:04.126Z,25.68
2019-03-29T07:05:33.766Z,21.93
2019-03-29T07:08:03.795Z,25.37
2019-03-29T07:10:33.530Z,19.45
2019-03-29T07:13:03.051Z,24.03
2019-03-29T07:15:32.632Z,28.07
2019-03-29T07:18:02.318Z,19.62
2019-03-29T07:20:32.036Z,21.97
2019-03-29T07:23:01.763Z,19.87
2019-03-29T07:25:31.461Z,21.07
2019-03-29T07:28:01.229Z,20.62
2019-03-29T07:30:30.863Z,17.98
2019-03-29T07:33:00.477Z,24.23
2019-03-29T07:35:30.223Z,21.35
2019-03-29T07:38:00.048Z,19.25
2019-03-29T07:40:29.772Z,16.97
2019-03-29T07:42:59.401Z,22.37
2019-03-29T07:45:29.034Z,18.10
2019-03-29T07:47:58.555Z,19.45
2019-03-29T07:50:28.182Z,18.33
2019-03-29T07:52:57.751Z,18.17
2019-03-29T07:55:27.431Z,19.75
2019-03-29T07:57:57.169Z,26.27
2019-03-29T08:00:27.818Z,23.12
2019-03-29T08:02:57.349Z,20.68
2019-03-29T08:05:28.105Z,22.20
2019-03-29T08:07:57.764Z,19.80
2019-03-29T08:10:31.008Z,18.67
2019-03-29T08:12:59.781Z,19.32
2019-03-29T08:15:29.378Z,24.37
2019-03-29T08:18:01.583Z,20.27
2019-03-29T08:20:42.000Z,20.77
2019-03-29T08:23:01.933Z,20.52
2019-03-29T08:25:31.567Z,19.82
2019-03-29T08:28:01.294Z,26.03
2019-03-29T08:30:31.029Z,26.02
2019-03-29T08:33:00.757Z,17.10
2019-03-29T08:35:30.378Z,25.65
2019-03-29T08:38:00.011Z,19.65
2019-03-29T08:40:29.740Z,37.17
2019-03-29T08:43:00.495Z,18.57
2019-03-29T08:45:30.120Z,16.45
2019-03-29T08:47:59.849Z,24.30
2019-03-29T08:50:29.485Z,19.82
2019-03-29T08:52:59.210Z,19.62
2019-03-29T08:55:28.726Z,18.48
2019-03-29T08:57:58.360Z,22.27
2019-03-29T09:00:31.812Z,22.52
2019-03-29T09:03:01.549Z,23.02
2019-03-29T09:05:32.366Z,21.73
2019-03-29T09:08:01.982Z,20.95
2019-03-29T09:10:32.743Z,19.32
2019-03-29T09:13:04.495Z,17.05
2019-03-29T09:15:33.636Z,14.50
2019-03-29T09:18:03.360Z,12.50
2019-03-29T09:20:34.598Z,15.88
2019-03-29T09:23:04.592Z,13.62
2019-03-29T09:25:34.190Z,14.98
2019-03-29T09:28:03.830Z,11.68
2019-03-29T09:30:33.510Z,22.48
2019-03-29T09:33:03.795Z,14.85
2019-03-29T09:35:33.524Z,12.03
2019-03-29T09:38:03.147Z,11.03
2019-03-29T09:40:32.876Z,12.90
2019-03-29T09:43:09.605Z,8.60
2019-03-29T09:45:33.813Z,9.43
2019-03-29T09:48:03.395Z,11.73
2019-03-29T09:50:32.986Z,11.95
2019-03-29T09:53:03.574Z,11.55
2019-03-29T09:55:33.105Z,15.40
2019-03-29T09:58:02.657Z,13.10
2019-03-29T10:00:32.349Z,11.55
2019-03-29T10:03:01.830Z,11.15
2019-03-29T10:05:31.763Z,9.83
2019-03-29T10:08:01.550Z,10.35
2019-03-29T10:10:34.392Z,14.58
2019-03-29T10:13:02.535Z,12.35
2019-03-29T10:15:32.266Z,13.00
2019-03-29T10:18:01.903Z,12.00
2019-03-29T10:20:31.533Z,13.20
2019-03-29T10:23:01.371Z,12.33
2019-03-29T10:25:31.087Z,11.48
2019-03-29T10:28:00.923Z,17.42
2019-03-29T10:30:41.804Z,13.05
2019-03-29T10:33:11.532Z,13.65
2019-03-29T10:35:51.581Z,12.35
2019-03-29T10:38:12.629Z,16.62
2019-03-29T10:40:42.255Z,13.13
2019-03-29T10:43:11.782Z,18.60
2019-03-29T10:45:41.415Z,11.08
2019-03-29T10:48:10.934Z,14.10
2019-03-29T10:50:40.565Z,10.05
2019-03-29T10:53:11.134Z,11.08
2019-03-29T10:55:40.843Z,9.77
2019-03-29T10:58:10.501Z,9.75
2019-03-29T11:00:40.607Z,9.77
2019-03-29T11:03:10.247Z,10.48
2019-03-29T11:05:39.768Z,13.00
2019-03-29T11:08:11.793Z,11.63
2019-03-29T11:10:40.713Z,17.60
2019-03-29T11:13:13.569Z,118.10
2019-03-29T11:15:41.748Z,29.05
2019-03-29T11:18:11.355Z,57.80
2019-03-29T11:20:40.919Z,17.37
2019-03-29T11:23:10.409Z,28.57
2019-03-29T11:25:40.069Z,79.40
2019-03-29T11:28:09.640Z,21.73
2019-03-29T11:30:42.645Z,14.10
2019-03-29T11:33:10.679Z,10.40
2019-03-29T11:35:40.213Z,8.70
2019-03-29T11:38:09.928Z,6.75
2019-03-29T11:40:39.672Z,9.18
2019-03-29T11:43:09.387Z,6.80
2019-03-29T11:45:38.920Z,6.33
2019-03-29T11:48:09.663Z,6.43
2019-03-29T11:50:39.414Z,6.55
2019-03-29T11:53:09.141Z,10.63
2019-03-29T11:55:38.759Z,6.92
2019-03-29T11:58:08.387Z,8.70
2019-03-29T12:00:38.224Z,12.40
2019-03-29T12:03:09.363Z,6.78
2019-03-29T12:05:40.349Z,8.48
2019-03-29T12:08:09.929Z,14.05
2019-03-29T12:10:39.552Z,8.78
2019-03-29T12:13:09.224Z,7.30
2019-03-29T12:15:39.158Z,5.87
2019-03-29T12:18:08.789Z,11.55
2019-03-29T12:20:38.615Z,6.47
2019-03-29T12:23:08.463Z,8.35
2019-03-29T12:25:38.097Z,8.53
2019-03-29T12:28:07.703Z,12.45
2019-03-29T12:30:37.347Z,8.70
2019-03-29T12:33:07.082Z,9.43
2019-03-29T12:35:36.803Z,8.90
2019-03-29T12:38:06.417Z,11.33
2019-03-29T12:40:36.145Z,9.05
2019-03-29T12:43:05.884Z,11.55
2019-03-29T12:45:35.960Z,6.60
2019-03-29T12:48:05.764Z,8.25
2019-03-29T12:50:35.481Z,9.93
2019-03-29T12:53:05.021Z,9.73
2019-03-29T12:55:34.638Z,9.63
2019-03-29T12:58:05.285Z,16.32
2019-03-29T13:00:35.017Z,9.90
2019-03-29T13:03:04.646Z,12.10
2019-03-29T13:05:34.272Z,12.13
2019-03-29T13:08:03.903Z,13.90
2019-03-29T13:10:33.625Z,9.53
2019-03-29T13:13:03.255Z,7.70
2019-03-29T13:15:32.886Z,10.40
2019-03-29T13:18:02.407Z,6.93
2019-03-29T13:20:33.055Z,7.12
2019-03-29T13:23:02.806Z,12.90
2019-03-29T13:25:32.421Z,7.15
2019-03-29T13:28:02.045Z,8.78
2019-03-29T13:30:31.782Z,7.25
2019-03-29T13:33:01.507Z,9.15
2019-03-29T13:35:31.320Z,10.78
2019-03-29T13:38:00.869Z,14.00
2019-03-29T13:40:31.523Z,15.43
2019-03-29T13:43:01.253Z,7.72
2019-03-29T13:45:30.871Z,10.00
2019-03-29T13:48:00.292Z,9.55
2019-03-29T13:50:29.929Z,7.60
2019-03-29T13:52:59.451Z,10.53
2019-03-29T13:55:28.980Z,9.90
2019-03-29T13:57:58.608Z,9.73
2019-03-29T14:00:28.336Z,15.60
2019-03-29T14:02:57.968Z,12.65
2019-03-29T14:05:27.603Z,7.83
2019-03-29T14:07:57.217Z,9.88
2019-03-29T14:10:26.853Z,8.37
2019-03-29T14:12:56.577Z,7.17
2019-03-29T14:15:26.389Z,8.63
2019-03-29T14:17:56.142Z,7.47
2019-03-29T14:20:33.135Z,9.97
2019-03-29T14:23:03.269Z,11.30
2019-03-29T14:25:33.000Z,13.30
2019-03-29T14:28:02.627Z,9.33
2019-03-29T14:30:32.259Z,15.93
2019-03-29T14:33:01.894Z,10.45
2019-03-29T14:35:31.721Z,11.70
2019-03-29T14:38:01.443Z,7.05
2019-03-29T14:40:31.079Z,10.90
2019-03-29T14:43:00.865Z,11.80
2019-03-29T14:45:30.552Z,8.60
2019-03-29T14:48:00.375Z,12.37
2019-03-29T14:50:29.990Z,7.90
2019-03-29T14:52:59.633Z,6.37
2019-03-29T14:55:29.259Z,13.37
2019-03-29T14:57:58.986Z,14.80
2019-03-29T15:00:39.399Z,10.57
2019-03-29T15:03:09.082Z,15.03
2019-03-29T15:05:38.711Z,12.73
2019-03-29T15:08:08.337Z,14.83
2019-03-29T15:10:37.944Z,12.47
2019-03-29T15:13:07.488Z,14.47
2019-03-29T15:15:37.227Z,13.30
2019-03-29T15:18:06.854Z,12.60
2019-03-29T15:20:36.374Z,17.17
2019-03-29T15:23:06.109Z,21.50
2019-03-29T15:25:35.748Z,21.10
2019-03-29T15:28:05.360Z,14.33
2019-03-29T15:30:35.000Z,12.07
2019-03-29T15:33:06.355Z,13.70
2019-03-29T15:35:35.982Z,18.67
2019-03-29T15:38:05.714Z,14.80
2019-03-29T15:40:36.480Z,13.30
2019-03-29T15:43:39.436Z,12.70
2019-03-29T15:49:28.198Z,18.75
2019-03-29T15:55:16.744Z,14.20
2019-03-29T16:04:39.760Z,19.70
2019-03-29T16:10:27.474Z,27.80
2019-03-29T16:16:15.542Z,32.42
2019-03-29T16:22:06.056Z,28.12
2019-03-29T16:27:53.768Z,28.90
2019-03-29T16:33:41.999Z,25.80
2019-03-29T16:39:19.629Z,24.55
2019-03-29T16:45:08.176Z,31.05
2019-03-29T16:50:51.002Z,27.17
2019-03-29T16:56:39.243Z,28.42
2019-03-29T17:06:02.578Z,23.32
2019-03-29T17:12:02.883Z,36.95
2019-03-29T17:18:03.205Z,32.65
2019-03-29T17:24:03.306Z,38.85
2019-03-29T17:36:04.054Z,34.58
2019-03-29T17:42:04.036Z,41.35
2019-03-29T17:48:05.018Z,38.53
2019-03-29T18:00:07.988Z,46.50
2019-03-29T18:09:20.865Z,41.25
2019-03-29T18:14:57.948Z,34.35
2019-03-29T18:20:48.134Z,32.60
2019-03-29T18:26:36.298Z,57.17
2019-03-29T18:38:06.550Z,37.88
2019-03-29T18:43:54.884Z,43.25
2019-03-29T18:49:43.536Z,39.48
2019-03-29T18:55:31.676Z,35.60
2019-03-29T19:01:20.450Z,40.30
2019-03-29T19:10:40.111Z,44.83
2019-03-29T19:16:41.015Z,47.30
2019-03-29T19:34:41.448Z,65.83
2019-03-29T19:40:41.550Z,50.60
2019-03-29T19:46:43.918Z,55.55
2019-03-29T19:52:43.921Z,99.62
2019-03-29T20:04:44.552Z,98.25
2019-03-29T20:13:59.956Z,48.63
2019-03-29T20:19:37.607Z,55.40
2019-03-29T20:25:26.668Z,53.60
2019-03-29T20:31:14.810Z,45.23
2019-03-29T20:37:02.450Z,64.53
2019-03-29T20:42:50.208Z,38.92
2019-03-29T20:48:38.627Z,39.25
2019-03-29T20:54:27.589Z,29.80
2019-03-29T21:00:16.321Z,34.25
2019-03-29T21:06:04.693Z,26.85
2019-03-29T21:15:17.286Z,45.98
2019-03-29T21:21:17.090Z,91.53
2019-03-29T21:27:17.309Z,74.47
2019-03-29T21:33:17.710Z,41.30
2019-03-29T21:39:18.328Z,48.60
2019-03-29T21:45:29.122Z,55.12
2019-03-29T21:57:28.173Z,41.00
2019-03-29T22:09:36.783Z,32.38
2019-03-29T22:18:38.933Z,38.13
2019-03-29T22:24:17.261Z,34.80
2019-03-29T22:30:08.365Z,29.57
2019-03-29T22:35:55.990Z,28.10
2019-03-29T22:41:44.656Z,38.23
2019-03-29T22:47:32.487Z,30.15
2019-03-29T22:53:20.950Z,33.33
2019-03-29T22:59:09.805Z,34.08
2019-03-29T23:04:59.064Z,35.23
2019-03-29T23:10:47.613Z,35.85
2019-03-29T23:19:54.581Z,34.35
2019-03-29T23:25:57.571Z,35.15
2019-03-29T23:37:58.079Z,30.10
2019-03-29T23:49:53.391Z,31.25
2019-03-29T23:55:55.958Z,32.00
